Time;durP1;ratioP1;P1;durP2;ratioP2;P2;SDS_P1;SDS_P2;PMS_P1;PMS_P2;Temp;Humidity;BMP_temperature;BMP_pressure;BME280_temperature;BME280_humidity;BME280_pressure;Samples;Min_cycle;Max_cycle;Signal;HPM_P1;HPM_P2
2023/10/16 00:02:22;;;;;;;40.63;37.23;;;;;;;4.63;100.00;101804.47;5022604;28;20567;-40
2023/10/16 00:04:51;;;;;;;38.50;36.70;;;;;;;4.63;100.00;101804.47;5022042;28;20444;-42
2023/10/16 00:07:20;;;;;;;38.47;36.00;;;;;;;4.64;100.00;101807.97;5024154;28;20426;-42
2023/10/16 00:09:49;;;;;;;37.60;35.90;;;;;;;4.64;100.00;101802.69;5024819;28;20863;-43
2023/10/16 00:12:19;;;;;;;39.10;37.00;;;;;;;4.65;100.00;101804.38;5022886;28;20487;-40
2023/10/16 00:14:48;;;;;;;38.30;36.10;;;;;;;4.66;100.00;101798.94;5021984;28;20445;-41
2023/10/16 00:17:16;;;;;;;37.63;35.77;;;;;;;4.69;100.00;101805.78;5023246;28;20519;-45
2023/10/16 00:19:44;;;;;;;37.10;35.50;;;;;;;4.70;100.00;101797.72;5024552;28;20951;-44
2023/10/16 00:22:16;;;;;;;37.00;35.40;;;;;;;4.73;100.00;101804.53;5023293;28;20456;-44
2023/10/16 00:24:46;;;;;;;35.87;34.30;;;;;;;4.75;100.00;101798.13;5021637;28;20433;-40
2023/10/16 00:27:15;;;;;;;35.97;33.90;;;;;;;4.80;100.00;101808.31;5023025;28;20437;-41
2023/10/16 00:29:43;;;;;;;36.00;33.50;;;;;;;4.83;100.00;101800.13;5024250;28;20539;-42
2023/10/16 00:32:12;;;;;;;35.67;34.10;;;;;;;4.83;100.00;101802.78;5016271;28;20465;-42
2023/10/16 00:34:40;;;;;;;33.73;32.33;;;;;;;4.86;100.00;101806.00;5024579;28;20516;-44
2023/10/16 00:37:09;;;;;;;35.80;33.70;;;;;;;4.87;100.00;101810.28;5023923;28;20433;-43
2023/10/16 00:39:37;;;;;;;34.83;32.90;;;;;;;4.88;100.00;101811.13;5020119;28;20457;-44
2023/10/16 00:42:08;;;;;;;36.07;34.37;;;;;;;4.89;100.00;101811.00;5021136;28;20453;-41
2023/10/16 00:44:37;;;;;;;38.00;35.70;;;;;;;4.90;100.00;101810.03;5024575;28;20436;-45
2023/10/16 00:47:07;;;;;;;36.03;34.33;;;;;;;4.92;100.00;101818.69;5024079;28;20519;-41
2023/10/16 00:49:38;;;;;;;36.63;33.90;;;;;;;4.92;100.00;101813.38;5020567;28;20457;-46
2023/10/16 00:52:06;;;;;;;36.37;34.67;;;;;;;4.95;100.00;101807.00;5021009;28;20460;-41
2023/10/16 00:54:39;;;;;;;37.20;35.47;;;;;;;4.96;100.00;101803.34;5024421;28;20433;-41
2023/10/16 00:57:10;;;;;;;35.90;33.90;;;;;;;4.96;100.00;101804.19;5023530;28;20432;-42
2023/10/16 00:59:39;;;;;;;35.23;33.63;;;;;;;4.98;100.00;101802.28;5020184;28;20461;-41
2023/10/16 01:02:07;;;;;;;34.27;32.80;;;;;;;5.02;100.00;101802.81;5020714;28;20544;-45
2023/10/16 01:04:37;;;;;;;33.17;31.67;;;;;;;5.05;100.00;101804.38;5024035;28;20439;-40
2023/10/16 01:07:06;;;;;;;34.13;32.17;;;;;;;5.07;100.00;101805.91;5024019;28;20824;-39
2023/10/16 01:09:35;;;;;;;34.27;32.57;;;;;;;5.09;100.00;101811.06;5020183;28;20533;-46
2023/10/16 01:12:07;;;;;;;33.90;32.30;;;;;;;5.08;100.00;101801.47;5020396;28;20461;-43
2023/10/16 01:14:36;;;;;;;34.57;32.40;;;;;;;5.07;100.00;101803.28;5020305;28;20441;-42
2023/10/16 01:17:04;;;;;;;33.77;32.07;;;;;;;5.08;100.00;101806.75;5020218;28;20520;-45
2023/10/16 01:19:32;;;;;;;33.60;32.20;;;;;;;5.09;100.00;101805.78;5019641;28;20455;-42
2023/10/16 01:22:01;;;;;;;33.10;31.80;;;;;;;5.10;100.00;101810.94;5020080;28;20453;-45
2023/10/16 01:24:30;;;;;;;32.90;30.80;;;;;;;5.10;100.00;101807.44;5023422;28;20527;-41
2023/10/16 01:27:06;;;;;;;34.17;32.60;;;;;;;5.10;100.00;101803.00;5023668;28;20812;-42
2023/10/16 01:29:34;;;;;;;33.07;31.67;;;;;;;5.12;100.00;101801.06;5023154;28;20452;-42
2023/10/16 01:32:02;;;;;;;33.00;31.50;;;;;;;5.11;100.00;101791.44;5023440;28;20531;-42
2023/10/16 01:34:32;;;;;;;32.00;30.57;;;;;;;5.14;100.00;101793.81;5020070;28;21247;-44
2023/10/16 01:37:07;;;;;;;32.13;30.80;;;;;;;5.18;100.00;101813.72;5019966;28;20433;-41
2023/10/16 01:39:49;;;;;;;33.17;31.30;;;;;;;5.18;100.00;101810.25;5019657;28;20861;-42
2023/10/16 01:42:18;;;;;;;33.33;31.83;;;;;;;5.15;100.00;101808.72;5021287;28;20456;-40
2023/10/16 01:44:47;;;;;;;33.50;31.87;;;;;;;5.15;100.00;101807.88;5023513;28;20523;-41
2023/10/16 01:47:15;;;;;;;36.43;34.13;;;;;;;5.14;100.00;101807.03;5023199;28;20883;-39
2023/10/16 01:49:45;;;;;;;35.40;33.80;;;;;;;5.13;100.00;101805.38;5022835;28;20476;-44
2023/10/16 01:52:12;;;;;;;35.53;33.93;;;;;;;5.11;100.00;101804.66;5021251;28;21036;-42
2023/10/16 01:54:44;;;;;;;36.60;34.87;;;;;;;5.10;100.00;101810.94;5019716;28;20512;-43
2023/10/16 01:57:12;;;;;;;35.23;33.50;;;;;;;5.07;100.00;101813.00;5020729;28;20443;-43
2023/10/16 01:59:42;;;;;;;34.90;33.53;;;;;;;5.06;100.00;101812.16;5022847;28;20460;-41
2023/10/16 02:02:11;;;;;;;35.43;33.83;;;;;;;5.07;100.00;101816.50;5022375;28;20543;-39
2023/10/16 02:04:39;;;;;;;33.83;32.37;;;;;;;5.08;100.00;101819.97;5019884;28;20516;-41
2023/10/16 02:07:08;;;;;;;34.70;33.00;;;;;;;5.08;100.00;101814.69;5019379;28;20449;-41
2023/10/16 02:09:38;;;;;;;36.40;34.23;;;;;;;5.10;100.00;101813.59;5019367;28;20633;-42
2023/10/16 02:12:10;;;;;;;33.00;31.53;;;;;;;5.14;100.00;101816.78;5022420;28;20496;-42
2023/10/16 02:14:40;;;;;;;34.67;32.53;;;;;;;5.15;100.00;101821.94;5025469;28;20437;-42
2023/10/16 02:17:14;;;;;;;34.23;32.33;;;;;;;5.16;100.00;101825.41;5022735;28;20848;-39
2023/10/16 02:19:45;;;;;;;33.50;31.67;;;;;;;5.16;100.00;101820.13;5019132;28;20456;-43
2023/10/16 02:22:16;;;;;;;32.17;30.97;;;;;;;5.12;100.00;101827.50;5019932;28;20500;-41
2023/10/16 02:24:44;;;;;;;34.27;32.70;;;;;;;5.11;100.00;101825.00;5023114;28;20454;-41
2023/10/16 02:27:18;;;;;;;32.73;31.33;;;;;;;5.09;100.00;101833.03;5022358;28;20432;-42
2023/10/16 02:29:46;;;;;;;33.67;31.70;;;;;;;5.10;100.00;101836.53;5019078;28;20465;-44
2023/10/16 02:32:15;;;;;;;33.97;32.47;;;;;;;5.08;100.00;101833.19;5019544;28;20488;-42
2023/10/16 02:34:42;;;;;;;35.17;33.63;;;;;;;5.04;100.00;101832.63;5022722;28;20528;-43
2023/10/16 02:37:11;;;;;;;36.00;34.40;;;;;;;4.99;100.00;101830.38;5022515;28;20432;-42
2023/10/16 02:39:41;;;;;;;35.43;34.03;;;;;;;4.95;100.00;101836.91;5019022;28;20452;-41
2023/10/16 02:42:12;;;;;;;35.93;34.43;;;;;;;4.92;100.00;101839.81;5019277;28;20477;-42
2023/10/16 02:44:42;;;;;;;35.50;33.90;;;;;;;4.92;100.00;101838.97;5019427;28;20528;-42
2023/10/16 02:47:13;;;;;;;35.50;34.13;;;;;;;4.90;100.00;101839.09;5019528;28;20441;-39
2023/10/16 02:49:47;;;;;;;35.93;34.20;;;;;;;4.90;100.00;101846.19;5022332;28;20457;-39
2023/10/16 02:52:17;;;;;;;35.90;34.27;;;;;;;4.91;100.00;101848.72;5021789;28;20447;-41
2023/10/16 02:54:47;;;;;;;36.27;34.57;;;;;;;4.96;100.00;101845.66;5019314;28;20433;-39
2023/10/16 02:57:15;;;;;;;35.10;33.57;;;;;;;5.00;100.00;101847.91;5019585;28;20523;-42
2023/10/16 02:59:45;;;;;;;36.50;35.20;;;;;;;5.08;100.00;101849.88;5022367;28;20475;-40
2023/10/16 03:02:17;;;;;;;34.50;33.10;;;;;;;5.13;100.00;101838.91;5022466;28;20479;-40
2023/10/16 03:04:51;;;;;;;36.43;34.90;;;;;;;5.19;100.00;101847.16;5022956;28;20491;-44
2023/10/16 03:07:21;;;;;;;36.50;35.00;;;;;;;5.27;100.00;101841.16;5023981;28;20944;-44
2023/10/16 03:09:51;;;;;;;35.90;33.97;;;;;;;5.31;100.00;101846.06;5026019;28;20871;-42
2023/10/16 03:12:20;;;;;;;34.23;32.77;;;;;;;5.36;100.00;101853.56;5025258;28;20866;-42
2023/10/16 03:14:56;;;;;;;32.50;30.93;;;;;;;5.43;100.00;101850.28;5022809;28;20465;-41
2023/10/16 03:17:34;;;;;;;31.73;30.10;;;;;;;5.49;100.00;101864.75;5024576;28;20812;-40
2023/10/16 03:20:09;;;;;;;30.40;29.00;;;;;;;5.55;100.00;101862.38;5025338;28;20509;-41
2023/10/16 03:22:37;;;;;;;30.37;28.97;;;;;;;5.60;100.00;101867.28;5025846;28;20502;-43
2023/10/16 03:25:24;;;;;;;28.90;27.70;;;;;;;5.65;100.00;101877.44;5026020;28;20511;-40
2023/10/16 03:27:52;;;;;;;29.93;28.53;;;;;;;5.69;100.00;101868.25;5027559;28;20483;-41
2023/10/16 03:30:21;;;;;;;30.50;28.70;;;;;;;5.75;100.00;101887.06;5022698;28;20461;-43
2023/10/16 03:32:48;;;;;;;30.53;29.00;;;;;;;5.80;100.00;101865.47;5025760;28;21049;-43
2023/10/16 03:35:21;;;;;;;30.60;29.30;;;;;;;5.86;100.00;101865.78;5025228;28;20824;-43
2023/10/16 03:37:51;;;;;;;32.10;30.70;;;;;;;5.88;100.00;101866.50;5022504;28;20476;-40
2023/10/16 03:40:19;;;;;;;33.13;31.53;;;;;;;5.90;100.00;101867.19;5022194;28;20548;-40
2023/10/16 03:42:47;;;;;;;32.07;30.57;;;;;;;5.90;100.00;101863.72;5025152;28;20563;-41
2023/10/16 03:45:16;;;;;;;31.80;30.37;;;;;;;5.89;100.00;101865.53;5025094;28;20436;-42
2023/10/16 03:47:46;;;;;;;32.37;30.87;;;;;;;5.88;100.00;101863.03;5022167;28;20433;-45
2023/10/16 14:45:27;;;;;;;27.10;25.70;;;;;;;10.36;100.00;102007.69;5108292;27;20294;-43
2023/10/16 14:47:54;;;;;;;29.83;28.13;;;;;;;10.38;100.00;101995.03;5108342;28;20432;-43
2023/10/16 14:50:21;;;;;;;26.57;25.03;;;;;;;10.32;100.00;101993.03;5113199;27;20445;-42
2023/10/16 14:52:47;;;;;;;26.67;25.63;;;;;;;10.40;100.00;101995.69;5110421;27;20974;-41
2023/10/16 14:55:17;;;;;;;25.43;24.40;;;;;;;10.44;100.00;101994.38;5039422;28;20557;-42
2023/10/16 14:57:43;;;;;;;26.90;25.87;;;;;;;10.49;100.00;101993.88;5038948;28;20446;-44
2023/10/16 15:00:32;;;;;;;26.40;24.70;;;;;;;10.45;100.00;102000.56;4886426;29;20501;-42
2023/10/16 15:03:00;;;;;;;26.87;25.70;;;;;;;10.41;100.00;101999.22;4790548;29;20477;-43
2023/10/16 15:10:47;;;;;;;27.83;26.45;;;;;;;10.32;100.00;102002.88;5073956;27;1235753;-41
2023/10/16 15:13:21;;;;;;;26.20;24.70;;;;;;;10.27;100.00;102002.53;5059948;27;20240;-42
2023/10/16 15:15:50;;;;;;;26.17;25.13;;;;;;;10.24;100.00;102010.84;5036460;28;20483;-41
2023/10/16 15:18:17;;;;;;;29.10;27.90;;;;;;;10.30;100.00;102005.72;5028217;28;20928;-43
2023/10/16 15:20:45;;;;;;;25.17;24.00;;;;;;;10.31;100.00;102007.34;5028699;28;20491;-44
2023/10/16 15:23:13;;;;;;;26.50;25.00;;;;;;;10.19;100.00;102005.16;5028098;28;20467;-42
2023/10/16 15:25:42;;;;;;;28.80;26.97;;;;;;;10.22;100.00;102005.66;5027948;28;20460;-44
2023/10/16 15:28:13;;;;;;;25.57;24.13;;;;;;;10.16;100.00;101998.31;5028337;28;20793;-42
2023/10/16 15:30:59;;;;;;;25.87;24.53;;;;;;;10.20;100.00;101990.84;5028336;28;20437;-42
2023/10/16 15:33:27;;;;;;;25.90;25.00;;;;;;;10.17;100.00;102000.00;5032933;28;20547;-42
2023/10/16 15:35:56;;;;;;;26.97;25.67;;;;;;;10.07;100.00;101990.44;5029972;28;20464;-40
2023/10/16 15:38:24;;;;;;;26.20;25.10;;;;;;;10.05;100.00;101992.44;5033815;28;20516;-40
2023/10/16 15:40:52;;;;;;;25.70;24.07;;;;;;;9.99;100.00;101993.94;5028204;28;20432;-42
2023/10/16 15:43:22;;;;;;;25.70;24.40;;;;;;;9.92;100.00;101999.06;5027636;28;20506;-41
2023/10/16 15:45:51;;;;;;;28.40;26.90;;;;;;;9.93;100.00;102006.06;5027969;28;20551;-43
2023/10/16 15:48:19;;;;;;;29.17;27.93;;;;;;;9.87;100.00;102004.06;5028478;28;20449;-42
2023/10/16 15:50:48;;;;;;;29.20;28.10;;;;;;;9.79;100.00;102009.38;5028187;28;20568;-40
2023/10/16 15:53:16;;;;;;;26.50;25.40;;;;;;;9.70;100.00;102009.47;5027594;28;20472;-47
2023/10/16 15:55:46;;;;;;;25.33;24.03;;;;;;;9.59;100.00;102010.56;5027397;28;20474;-42
2023/10/16 15:58:15;;;;;;;27.30;26.20;;;;;;;9.56;100.00;102012.75;5028177;28;20467;-44
2023/10/16 16:00:44;;;;;;;28.10;27.00;;;;;;;9.56;100.00;102020.75;5027901;28;20439;-40
2023/10/16 16:03:14;;;;;;;29.30;28.00;;;;;;;9.49;100.00;102015.22;5025952;28;20467;-48
2023/10/16 16:05:42;;;;;;;29.77;28.27;;;;;;;9.44;100.00;102036.13;5027094;28;20463;-39
2023/10/16 16:08:11;;;;;;;30.53;29.20;;;;;;;9.37;100.00;102041.28;5027901;28;20519;-40
2023/10/16 16:10:40;;;;;;;29.20;26.83;;;;;;;9.29;100.00;102038.53;5030131;28;20555;-42
2023/10/16 16:13:09;;;;;;;30.73;29.00;;;;;;;9.29;100.00;102038.53;5039274;28;20462;-42
2023/10/16 16:15:39;;;;;;;29.83;28.23;;;;;;;9.23;100.00;102046.31;5047055;28;20469;-39
2023/10/16 16:18:11;;;;;;;29.93;28.20;;;;;;;9.18;100.00;102048.59;5047726;28;20882;-41
2023/10/16 16:20:40;;;;;;;30.37;28.13;;;;;;;9.13;100.00;102058.91;5042245;28;20957;-38
2023/10/16 16:23:08;;;;;;;30.40;29.30;;;;;;;9.12;100.00;102058.06;5033438;28;20994;-40
2023/10/16 16:25:38;;;;;;;29.87;28.60;;;;;;;9.05;100.00;102053.53;5033871;28;20514;-40
2023/10/16 16:28:07;;;;;;;31.73;30.40;;;;;;;8.96;100.00;102052.59;5033994;28;20460;-46
2023/10/16 16:30:35;;;;;;;31.83;30.63;;;;;;;8.89;100.00;102057.72;5033737;28;20475;-46
2023/10/16 16:33:06;;;;;;;29.97;28.67;;;;;;;8.85;100.00;102060.81;5033178;28;20463;-46
2023/10/16 16:35:35;;;;;;;30.63;29.17;;;;;;;8.80;100.00;102058.63;5033752;28;20522;-44
2023/10/16 16:38:07;;;;;;;31.90;30.70;;;;;;;8.79;100.00;102064.94;5033550;28;20934;-40
2023/10/16 16:40:35;;;;;;;33.40;31.80;;;;;;;8.77;100.00;102068.75;5033753;28;20525;-44
2023/10/16 16:43:04;;;;;;;32.37;31.07;;;;;;;8.70;100.00;102065.84;5033074;28;20983;-42
2023/10/16 16:45:32;;;;;;;34.47;32.97;;;;;;;8.61;100.00;102074.75;5033318;28;20460;-41
2023/10/16 16:48:01;;;;;;;33.90;32.60;;;;;;;8.53;100.00;102073.81;5033593;28;20436;-46
2023/10/16 16:50:30;;;;;;;36.40;34.20;;;;;;;8.42;100.00;102076.72;5033307;28;21076;-43
2023/10/16 16:53:00;;;;;;;40.37;38.03;;;;;;;8.26;100.00;102075.50;5033022;28;20459;-40
2023/10/16 16:55:28;;;;;;;36.30;34.20;;;;;;;8.11;100.00;102071.69;5033412;28;20488;-40
2023/10/16 16:57:56;;;;;;;36.53;34.50;;;;;;;8.01;100.00;102076.19;5033179;28;20436;-40
2023/10/16 17:00:26;;;;;;;32.90;31.40;;;;;;;7.91;100.00;102079.91;5033314;28;20523;-40
2023/10/16 17:02:55;;;;;;;35.30;33.60;;;;;;;7.82;100.00;102082.44;5032831;28;20561;-42
2023/10/16 17:05:24;;;;;;;34.33;32.63;;;;;;;7.73;100.00;102085.13;5033027;28;20483;-43
2023/10/16 17:07:51;;;;;;;35.13;33.23;;;;;;;7.64;100.00;102084.19;5033298;28;20444;-44
2023/10/16 17:10:27;;;;;;;34.77;33.00;;;;;;;7.58;100.00;102081.28;5032963;28;20878;-40
2023/10/16 17:12:56;;;;;;;35.27;33.57;;;;;;;7.50;100.00;102078.50;5032714;28;20455;-42
2023/10/16 17:15:24;;;;;;;34.83;33.17;;;;;;;7.43;100.00;102080.06;5032683;28;20467;-43
2023/10/16 17:17:52;;;;;;;33.50;32.00;;;;;;;7.38;100.00;102079.66;5033063;28;20436;-40
2023/10/16 17:20:21;;;;;;;31.50;30.10;;;;;;;7.31;100.00;102082.06;5033199;28;20519;-38
2023/10/16 17:22:50;;;;;;;32.53;30.97;;;;;;;7.26;100.00;102091.41;5032216;28;20464;-39
2023/10/16 17:25:35;;;;;;;34.63;31.90;;;;;;;7.18;100.00;102086.81;5030085;28;20463;-40
2023/10/16 17:28:03;;;;;;;33.13;31.70;;;;;;;7.12;100.00;102090.03;5051121;28;20436;-39
2023/10/16 17:30:31;;;;;;;32.43;30.63;;;;;;;7.06;100.00;102091.44;5038073;28;20468;-40
2023/10/16 17:32:59;;;;;;;32.40;30.90;;;;;;;6.99;100.00;102090.31;5030572;28;20461;-39
2023/10/16 17:35:33;;;;;;;34.03;32.43;;;;;;;6.96;100.00;102098.53;5031589;28;20985;-39
2023/10/16 17:38:00;;;;;;;32.50;31.00;;;;;;;6.92;100.00;102102.47;5032844;28;20498;-39
2023/10/16 17:40:28;;;;;;;31.00;29.60;;;;;;;6.89;100.00;102104.56;5032711;28;21003;-40
2023/10/16 17:42:57;;;;;;;31.03;29.60;;;;;;;6.84;100.00;102107.63;5031962;28;20495;-39
2023/10/16 17:45:26;;;;;;;37.10;34.87;;;;;;;6.80;100.00;102111.53;5031820;28;20464;-40
2023/10/16 17:47:54;;;;;;;35.90;34.00;;;;;;;6.78;100.00;102102.88;5031855;28;20943;-38
2023/10/16 17:50:22;;;;;;;34.80;33.10;;;;;;;6.77;100.00;102110.97;5032097;28;21009;-41
2023/10/16 17:52:50;;;;;;;32.90;31.40;;;;;;;6.75;100.00;102115.59;5031503;28;20539;-39
2023/10/16 17:55:19;;;;;;;32.10;30.80;;;;;;;6.76;100.00;102114.59;5031960;28;20464;-38
2023/10/16 17:57:47;;;;;;;30.20;28.80;;;;;;;6.76;100.00;102117.25;5032051;28;20436;-38
2023/10/16 18:00:19;;;;;;;29.90;28.20;;;;;;;6.77;100.00;102119.78;5031960;28;20439;-38
2023/10/16 18:02:48;;;;;;;28.20;27.10;;;;;;;6.79;100.00;102123.09;5029561;28;20464;-40
2023/10/16 18:05:16;;;;;;;29.83;28.43;;;;;;;6.83;100.00;102121.88;5031550;28;20471;-39
2023/10/16 18:07:45;;;;;;;29.00;27.70;;;;;;;6.89;100.00;102126.63;5031606;28;20470;-38
2023/10/16 18:10:16;;;;;;;28.70;27.60;;;;;;;6.93;100.00;102125.34;5031633;28;20440;-38
2023/10/16 18:12:44;;;;;;;29.43;28.23;;;;;;;6.98;100.00;102124.94;5031492;28;20452;-38
2023/10/16 18:15:14;;;;;;;28.60;27.20;;;;;;;7.03;100.00;102126.19;5031383;28;20458;-39
2023/10/16 18:17:45;;;;;;;29.53;28.07;;;;;;;7.07;100.00;102124.09;5032121;28;20816;-38
2023/10/16 18:20:15;;;;;;;29.07;27.77;;;;;;;7.12;100.00;102122.69;5032515;28;20792;-40
2023/10/16 18:22:43;;;;;;;30.73;28.93;;;;;;;7.17;100.00;102119.59;5031535;28;20503;-39
2023/10/16 18:25:12;;;;;;;30.43;29.03;;;;;;;7.20;100.00;102122.81;5031119;28;20462;-39
2023/10/16 18:27:40;;;;;;;31.47;29.67;;;;;;;7.26;100.00;102128.56;5031621;28;20460;-41
2023/10/16 18:30:09;;;;;;;30.30;28.93;;;;;;;7.32;100.00;102122.69;5031524;28;21131;-40
2023/10/16 18:32:39;;;;;;;30.93;29.20;;;;;;;7.35;100.00;102125.88;5029674;28;20466;-39
2023/10/16 18:35:09;;;;;;;30.00;28.40;;;;;;;7.38;100.00;102128.25;5031177;28;20456;-39
2023/10/16 18:37:37;;;;;;;30.57;29.00;;;;;;;7.41;100.00;102125.31;5031413;28;20448;-38
2023/10/16 18:40:09;;;;;;;31.13;29.50;;;;;;;7.44;100.00;102124.19;5037473;28;20454;-39
2023/10/16 18:42:38;;;;;;;31.07;29.57;;;;;;;7.45;100.00;102126.72;5046493;28;20455;-39
2023/10/16 18:45:07;;;;;;;32.40;31.00;;;;;;;7.47;100.00;102123.91;5048584;28;20796;-39
2023/10/16 18:47:35;;;;;;;34.30;31.40;;;;;;;7.48;100.00;102121.13;5051242;28;20546;-39
2023/10/16 18:50:04;;;;;;;31.73;30.37;;;;;;;7.49;100.00;102124.63;5050989;28;20983;-39
2023/10/16 18:52:34;;;;;;;31.53;29.93;;;;;;;7.49;100.00;102130.75;5050367;28;20978;-38
2023/10/16 18:55:05;;;;;;;31.33;29.47;;;;;;;7.51;100.00;102126.13;5048806;28;20526;-39
2023/10/16 18:57:33;;;;;;;30.17;28.80;;;;;;;7.51;100.00;102130.59;5045502;28;20856;-39
2023/10/16 19:00:00;;;;;;;31.53;30.00;;;;;;;7.50;100.00;102131.56;5050905;28;20492;-40
2023/10/16 19:02:29;;;;;;;31.67;30.17;;;;;;;7.52;100.00;102130.47;5049216;28;20467;-39
2023/10/16 19:04:56;;;;;;;32.13;30.60;;;;;;;7.54;100.00;102130.31;5050317;28;20435;-42
2023/10/16 19:07:24;;;;;;;30.97;29.57;;;;;;;7.55;100.00;102138.16;5042928;28;20518;-39
2023/10/16 19:09:54;;;;;;;30.20;28.80;;;;;;;7.59;100.00;102134.22;5050407;28;20505;-39
2023/10/16 19:12:22;;;;;;;31.10;29.50;;;;;;;7.57;100.00;102130.88;5050550;28;20552;-39
2023/10/16 19:14:53;;;;;;;31.60;29.93;;;;;;;7.57;100.00;102136.19;5050233;28;20439;-40
2023/10/16 19:17:21;;;;;;;31.50;30.20;;;;;;;7.58;100.00;102135.22;5050872;28;20484;-39
2023/10/16 19:19:49;;;;;;;31.00;29.60;;;;;;;7.58;100.00;102140.53;5042875;28;20474;-40
2023/10/16 19:22:17;;;;;;;30.40;28.80;;;;;;;7.60;100.00;102143.03;5042322;28;20974;-41
2023/10/16 19:24:46;;;;;;;31.00;29.60;;;;;;;7.61;100.00;102150.84;5042388;28;20439;-39
2023/10/16 19:27:15;;;;;;;32.70;31.00;;;;;;;7.61;100.00;102145.56;5050782;28;20776;-39
2023/10/16 19:29:42;;;;;;;35.40;33.13;;;;;;;7.66;100.00;102153.06;5050776;28;20439;-38
2023/10/16 19:32:13;;;;;;;36.70;34.07;;;;;;;7.67;100.00;102150.28;5041597;28;20472;-41
2023/10/16 19:34:42;;;;;;;34.60;32.77;;;;;;;7.71;100.00;102153.47;5044054;28;20440;-39
2023/10/16 19:37:09;;;;;;;33.17;31.37;;;;;;;7.72;100.00;102155.16;5032214;28;20446;-39
2023/10/16 19:39:38;;;;;;;32.60;30.80;;;;;;;7.75;100.00;102154.88;5045278;28;20443;-38
2023/10/16 19:42:07;;;;;;;32.40;30.50;;;;;;;7.74;100.00;102143.41;5049987;28;20483;-38
2023/10/16 19:44:37;;;;;;;34.33;32.67;;;;;;;7.78;100.00;102154.56;5050211;28;20930;-39
2023/10/16 19:47:05;;;;;;;32.87;31.00;;;;;;;7.80;100.00;102157.91;5050183;28;20466;-40
2023/10/16 19:49:33;;;;;;;33.57;31.80;;;;;;;7.82;100.00;102159.44;5050770;28;21019;-39
2023/10/16 19:52:06;;;;;;;33.57;31.80;;;;;;;7.85;100.00;102165.47;5049891;28;20462;-40
2023/10/16 19:54:34;;;;;;;33.70;32.30;;;;;;;7.87;100.00;102166.16;5050323;28;20847;-40
2023/10/16 19:57:02;;;;;;;33.53;31.83;;;;;;;7.90;100.00;102173.84;5052717;28;20451;-40
2023/10/16 19:59:29;;;;;;;33.80;32.10;;;;;;;7.91;100.00;102172.84;5054494;28;20443;-39
2023/10/16 20:01:58;;;;;;;32.87;31.17;;;;;;;7.91;100.00;102168.38;5052202;28;20431;-39
2023/10/16 20:04:28;;;;;;;32.30;30.90;;;;;;;7.94;100.00;102168.09;5053948;28;20447;-39
2023/10/16 20:06:56;;;;;;;33.57;31.97;;;;;;;7.94;100.00;102168.09;5045689;28;20460;-39
2023/10/16 20:09:29;;;;;;;33.03;31.13;;;;;;;7.97;100.00;102172.28;5053925;28;20522;-39
2023/10/16 20:11:58;;;;;;;33.07;31.67;;;;;;;8.00;100.00;102164.88;5053453;28;20481;-39
2023/10/16 20:14:45;;;;;;;33.07;31.20;;;;;;;8.02;100.00;102168.19;5053822;28;20875;-39
2023/10/16 20:17:14;;;;;;;33.93;31.90;;;;;;;8.02;100.00;102167.34;5053492;28;20439;-41
2023/10/16 20:19:43;;;;;;;32.10;30.50;;;;;;;8.03;100.00;102161.91;5053990;28;20435;-39
2023/10/16 20:22:15;;;;;;;33.03;31.37;;;;;;;8.02;100.00;102170.00;5053167;28;20462;-38
2023/10/16 20:24:43;;;;;;;33.20;31.30;;;;;;;8.02;100.00;102165.53;5053513;28;20962;-41
2023/10/16 20:27:11;;;;;;;30.30;28.90;;;;;;;8.04;100.00;102176.00;5043108;28;20440;-39
2023/10/16 20:29:39;;;;;;;31.37;30.07;;;;;;;8.07;100.00;102170.41;5033889;28;20441;-39
2023/10/16 20:32:07;;;;;;;31.60;30.17;;;;;;;8.08;100.00;102177.41;5033201;28;20495;-42
2023/10/16 20:34:36;;;;;;;33.77;31.80;;;;;;;8.12;100.00;102173.50;5033532;28;20436;-39
2023/10/16 20:37:04;;;;;;;32.33;30.60;;;;;;;8.13;100.00;102175.13;5033745;28;20462;-38
2023/10/16 20:39:32;;;;;;;33.53;31.37;;;;;;;8.14;100.00;102176.81;5033739;28;20919;-40
2023/10/16 20:42:00;;;;;;;33.23;31.60;;;;;;;8.15;100.00;102181.16;5033058;28;20432;-39
2023/10/16 20:44:27;;;;;;;33.00;31.60;;;;;;;8.15;100.00;102176.66;5033498;28;20432;-39
2023/10/16 20:46:56;;;;;;;33.37;31.97;;;;;;;8.16;100.00;102172.19;5033448;28;20558;-40
2023/10/16 20:49:23;;;;;;;31.73;30.13;;;;;;;8.17;100.00;102177.38;5033666;28;20463;-39
2023/10/16 20:51:53;;;;;;;32.23;30.70;;;;;;;8.18;100.00;102172.91;5033012;28;21005;-39
2023/10/16 20:54:21;;;;;;;31.93;30.23;;;;;;;8.20;100.00;102181.56;5033336;28;20468;-39
2023/10/16 20:56:49;;;;;;;32.03;30.37;;;;;;;8.22;100.00;102179.59;5033609;28;20460;-39
2023/10/16 20:59:16;;;;;;;31.10;29.60;;;;;;;8.21;100.00;102178.75;5033340;28;20444;-39
2023/10/16 21:01:44;;;;;;;32.80;30.97;;;;;;;8.22;100.00;102180.44;5032816;28;20435;-39
2023/10/16 21:04:12;;;;;;;31.00;29.50;;;;;;;8.23;100.00;102171.47;5033262;28;20467;-39
2023/10/16 21:06:40;;;;;;;28.80;27.30;;;;;;;8.22;100.00;102168.94;5033240;28;20455;-39
2023/10/16 21:09:11;;;;;;;27.43;26.13;;;;;;;8.24;100.00;102180.28;5033160;28;20502;-38
2023/10/16 21:11:40;;;;;;;26.43;25.33;;;;;;;8.24;100.00;102172.31;5033297;28;20472;-39
2023/10/16 21:14:07;;;;;;;29.30;28.10;;;;;;;8.29;100.00;102175.41;5032254;28;20451;-40
2023/10/16 21:16:35;;;;;;;32.83;31.33;;;;;;;8.30;100.00;102180.56;5032630;28;21017;-45
2023/10/16 21:19:03;;;;;;;33.97;32.47;;;;;;;8.32;100.00;102175.94;5032789;28;20777;-46
2023/10/16 21:21:33;;;;;;;35.90;33.90;;;;;;;8.33;100.00;102182.91;5033170;28;20443;-42
2023/10/16 21:24:01;;;;;;;34.47;32.60;;;;;;;8.35;100.00;102180.13;5032405;28;20492;-40
2023/10/16 21:26:30;;;;;;;34.17;32.77;;;;;;;8.37;100.00;102182.63;5032563;28;20460;-43
2023/10/16 21:28:58;;;;;;;34.17;32.63;;;;;;;8.33;100.00;102182.91;5032677;28;20531;-44
2023/10/16 21:31:26;;;;;;;34.23;32.47;;;;;;;8.33;100.00;102185.56;5033048;28;20523;-45
2023/10/16 21:33:54;;;;;;;32.50;31.00;;;;;;;8.37;100.00;102187.94;5030806;28;20555;-43
2023/10/16 21:36:22;;;;;;;32.93;31.47;;;;;;;8.36;100.00;102188.94;5031987;28;20470;-41
2023/10/16 21:38:50;;;;;;;35.17;33.20;;;;;;;8.34;100.00;102192.56;5032647;28;20444;-40
2023/10/16 21:41:17;;;;;;;32.07;30.67;;;;;;;8.34;100.00;102189.91;5032239;28;20432;-44
2023/10/16 21:43:46;;;;;;;33.27;31.83;;;;;;;8.35;100.00;102180.13;5032049;28;20463;-42
2023/10/16 21:46:14;;;;;;;31.70;30.13;;;;;;;8.37;100.00;102195.91;5031991;28;20462;-42
2023/10/16 21:48:42;;;;;;;30.70;29.20;;;;;;;8.37;100.00;102187.94;5032594;28;20468;-42
2023/10/16 21:51:10;;;;;;;33.63;32.03;;;;;;;8.37;100.00;102187.94;5032288;28;20471;-42
2023/10/16 21:53:39;;;;;;;33.53;31.77;;;;;;;8.34;100.00;102184.59;5031789;28;20464;-41
2023/10/16 21:56:09;;;;;;;34.47;32.60;;;;;;;8.36;100.00;102184.47;5032060;28;20460;-41
2023/10/16 21:58:37;;;;;;;33.63;32.23;;;;;;;8.37;100.00;102186.13;5032464;28;20585;-42
2023/10/16 22:01:07;;;;;;;33.13;31.57;;;;;;;8.40;100.00;102190.31;5031779;28;20527;-44
2023/10/16 22:03:35;;;;;;;32.90;31.40;;;;;;;8.40;100.00;102192.97;5031845;28;20539;-42
2023/10/16 22:06:03;;;;;;;33.50;32.10;;;;;;;8.39;100.00;102189.50;5045967;28;20482;-40
2023/10/16 22:08:33;;;;;;;33.97;32.30;;;;;;;8.39;100.00;102197.47;5031986;28;20444;-44
2023/10/16 22:11:00;;;;;;;34.60;32.80;;;;;;;8.40;100.00;102188.50;5032023;28;20490;-42
2023/10/16 22:13:29;;;;;;;34.70;33.23;;;;;;;8.40;100.00;102190.31;5031458;28;20482;-40
2023/10/16 22:15:57;;;;;;;33.43;31.80;;;;;;;8.41;100.00;102184.00;5031630;28;20466;-40
2023/10/16 22:18:26;;;;;;;34.53;32.70;;;;;;;8.40;100.00;102185.81;5031297;28;20432;-46
2023/10/16 22:20:57;;;;;;;33.23;31.73;;;;;;;8.39;100.00;102183.34;5031859;28;20440;-42